createdAt,value
2022-11-26T00:00:32.003Z,7.40
2022-11-26T00:03:00.003Z,7.30
2022-11-26T00:05:32.779Z,7.40
2022-11-26T00:08:02.826Z,7.30
2022-11-26T00:10:32.611Z,6.90
2022-11-26T00:13:00.494Z,6.80
2022-11-26T00:15:30.419Z,6.60
2022-11-26T00:17:58.664Z,6.50
2022-11-26T00:20:32.261Z,6.40
2022-11-26T00:23:03.289Z,6.30
2022-11-26T00:25:39.544Z,6.40
2022-11-26T00:28:28.365Z,6.30
2022-11-26T00:30:59.469Z,6.30
2022-11-26T00:33:28.315Z,6.20
2022-11-26T00:36:02.690Z,6.20
2022-11-26T00:38:31.582Z,6.10
2022-11-26T00:41:00.430Z,6.20
2022-11-26T00:43:28.372Z,6.10
2022-11-26T00:45:56.374Z,6.00
2022-11-26T00:48:24.336Z,5.90
2022-11-26T00:50:53.130Z,5.70
2022-11-26T00:53:26.090Z,5.80
2022-11-26T00:55:54.151Z,5.70
2022-11-26T00:58:25.676Z,5.60
2022-11-26T01:00:54.539Z,5.50
2022-11-26T01:03:22.978Z,5.40
2022-11-26T01:05:52.274Z,5.40
2022-11-26T01:08:28.317Z,5.30
2022-11-26T01:10:56.288Z,5.30
2022-11-26T01:13:24.202Z,5.20
2022-11-26T01:15:52.216Z,5.40
2022-11-26T01:18:22.342Z,5.40
2022-11-26T01:20:50.652Z,5.30
2022-11-26T01:23:20.339Z,5.20
2022-11-26T01:25:49.671Z,5.10
2022-11-26T01:28:19.965Z,5.00
2022-11-26T01:30:48.368Z,4.90
2022-11-26T01:33:16.313Z,4.90
2022-11-26T01:35:44.346Z,4.90
2022-11-26T01:38:15.136Z,4.80
2022-11-26T01:41:08.748Z,4.80
2022-11-26T01:43:42.512Z,4.80
2022-11-26T01:46:16.038Z,4.80
2022-11-26T01:48:44.680Z,4.80
2022-11-26T01:51:13.507Z,4.80
2022-11-26T01:53:51.150Z,4.70
2022-11-26T01:56:31.781Z,4.60
2022-11-26T01:59:07.782Z,4.60
2022-11-26T02:01:36.229Z,4.60
2022-11-26T02:04:13.101Z,4.60
2022-11-26T02:06:43.667Z,4.60
2022-11-26T02:09:13.059Z,4.70
2022-11-26T02:11:41.298Z,4.60
2022-11-26T02:14:15.138Z,4.60
2022-11-26T02:17:13.120Z,4.60
2022-11-26T02:20:18.190Z,4.40
2022-11-26T02:23:21.316Z,4.30
2022-11-26T02:26:09.537Z,4.20
2022-11-26T02:28:53.458Z,4.20
2022-11-26T02:31:28.625Z,4.10
2022-11-26T02:34:02.884Z,4.00
2022-11-26T02:36:35.908Z,4.00
2022-11-26T02:39:13.480Z,4.00
2022-11-26T02:41:45.907Z,3.90
2022-11-26T02:44:15.108Z,3.90
2022-11-26T02:46:46.770Z,3.90
2022-11-26T02:49:17.850Z,3.90
2022-11-26T02:51:46.812Z,3.80
2022-11-26T02:54:15.447Z,3.90
2022-11-26T02:56:43.996Z,3.90
2022-11-26T02:59:12.832Z,3.80
2022-11-26T03:01:50.900Z,3.80
2022-11-26T03:04:23.008Z,3.70
2022-11-26T03:06:52.859Z,3.80
2022-11-26T03:09:24.083Z,3.80
2022-11-26T03:11:52.212Z,3.70
2022-11-26T03:14:20.183Z,3.70
2022-11-26T03:16:49.598Z,3.60
2022-11-26T03:19:20.649Z,3.60
2022-11-26T03:21:48.625Z,3.50
2022-11-26T03:24:16.733Z,3.40
2022-11-26T03:26:44.603Z,3.40
2022-11-26T03:29:12.490Z,3.40
2022-11-26T03:31:40.378Z,3.50
2022-11-26T03:34:09.727Z,3.70
2022-11-26T03:36:37.648Z,3.50
2022-11-26T03:39:06.125Z,3.40
2022-11-26T03:41:34.433Z,3.40
2022-11-26T03:44:02.520Z,3.40
2022-11-26T03:46:30.486Z,3.40
2022-11-26T03:48:58.458Z,3.30
2022-11-26T03:51:27.851Z,3.30
2022-11-26T03:53:55.848Z,3.30
2022-11-26T03:56:23.896Z,3.40
2022-11-26T03:58:51.946Z,3.30
2022-11-26T04:01:19.994Z,3.30
2022-11-26T04:03:47.968Z,3.40
2022-11-26T04:06:16.148Z,3.40
2022-11-26T04:08:45.489Z,3.40
2022-11-26T04:11:13.449Z,3.40
2022-11-26T04:13:41.448Z,3.20
2022-11-26T04:16:10.287Z,3.20
2022-11-26T04:18:38.346Z,3.20
2022-11-26T04:21:07.774Z,3.10
2022-11-26T04:23:36.159Z,3.10
2022-11-26T04:26:05.968Z,3.00
2022-11-26T04:28:33.982Z,2.90
2022-11-26T04:31:01.996Z,3.30
2022-11-26T04:33:30.215Z,3.50
2022-11-26T04:35:58.131Z,3.50
2022-11-26T04:38:26.372Z,3.50
2022-11-26T04:40:54.714Z,3.40
2022-11-26T04:43:24.083Z,3.30
2022-11-26T04:45:52.383Z,3.20
2022-11-26T04:48:20.584Z,3.20
2022-11-26T04:50:49.797Z,3.20
2022-11-26T04:53:21.649Z,3.10
2022-11-26T04:55:50.345Z,3.00
2022-11-26T04:58:19.056Z,3.00
2022-11-26T05:00:51.043Z,3.00
2022-11-26T05:03:19.854Z,3.00
2022-11-26T05:05:48.169Z,3.00
2022-11-26T05:08:16.185Z,2.80
2022-11-26T05:10:44.100Z,2.80
2022-11-26T05:13:12.433Z,2.70
2022-11-26T05:15:40.418Z,2.80
2022-11-26T05:18:09.962Z,2.90
2022-11-26T05:20:37.945Z,3.00
2022-11-26T05:23:05.873Z,3.10
2022-11-26T05:25:33.847Z,3.00
2022-11-26T05:28:01.808Z,2.90
2022-11-26T05:30:29.832Z,2.80
2022-11-26T05:32:57.762Z,2.70
2022-11-26T05:35:27.316Z,2.60
2022-11-26T05:37:55.399Z,2.50
2022-11-26T05:40:23.263Z,2.40
2022-11-26T05:42:51.216Z,2.40
2022-11-26T05:45:19.235Z,2.40
2022-11-26T05:47:47.647Z,2.40
2022-11-26T05:50:15.563Z,2.40
2022-11-26T05:52:45.013Z,2.40
2022-11-26T05:55:12.932Z,2.30
2022-11-26T05:57:41.206Z,2.20
2022-11-26T06:00:11.040Z,2.20
2022-11-26T06:02:39.701Z,2.10
2022-11-26T06:05:08.786Z,2.10
2022-11-26T06:07:40.603Z,2.20
2022-11-26T06:10:13.902Z,2.10
2022-11-26T06:12:41.864Z,2.00
2022-11-26T06:15:10.828Z,2.00
2022-11-26T06:17:38.769Z,2.00
2022-11-26T06:20:07.891Z,2.00
2022-11-26T06:22:38.386Z,2.00
2022-11-26T06:25:07.879Z,2.00
2022-11-26T06:27:37.967Z,2.00
2022-11-26T06:30:08.413Z,2.00
2022-11-26T06:32:36.429Z,2.20
2022-11-26T06:35:04.689Z,2.20
2022-11-26T06:37:33.607Z,2.20
2022-11-26T06:40:01.881Z,2.10
2022-11-26T06:42:30.073Z,2.00
2022-11-26T06:45:00.079Z,1.90
2022-11-26T06:47:28.205Z,1.90
2022-11-26T06:49:56.580Z,2.00
2022-11-26T06:52:24.585Z,2.00
2022-11-26T06:54:52.568Z,1.90
2022-11-26T06:57:20.433Z,1.80
2022-11-26T06:59:48.313Z,1.70
2022-11-26T07:02:17.780Z,1.70
2022-11-26T07:04:45.752Z,1.70
2022-11-26T07:07:14.049Z,1.70
2022-11-26T07:09:42.630Z,1.70
2022-11-26T07:12:10.639Z,1.70
2022-11-26T07:14:39.003Z,1.90
2022-11-26T07:17:07.650Z,1.90
2022-11-26T07:19:36.947Z,1.90
2022-11-26T07:22:04.837Z,1.80
2022-11-26T07:24:32.863Z,1.80
2022-11-26T07:27:01.166Z,1.90
2022-11-26T07:29:29.385Z,1.80
2022-11-26T07:31:57.452Z,1.90
2022-11-26T07:34:25.387Z,2.00
2022-11-26T07:36:58.027Z,2.10
2022-11-26T07:39:26.243Z,2.30
2022-11-26T07:41:54.139Z,2.40
2022-11-26T07:44:22.107Z,2.40
2022-11-26T07:46:50.069Z,2.50
2022-11-26T07:49:18.002Z,2.70
2022-11-26T07:51:45.962Z,2.80
2022-11-26T07:54:15.214Z,3.20
2022-11-26T07:56:43.108Z,3.80
2022-11-26T07:59:11.807Z,4.50
2022-11-26T08:01:39.924Z,5.30
2022-11-26T08:04:08.362Z,6.10
2022-11-26T08:06:36.320Z,6.80
2022-11-26T08:09:05.619Z,7.60
2022-11-26T08:11:35.591Z,8.40
2022-11-26T08:14:07.244Z,9.10
2022-11-26T08:16:35.866Z,9.20
2022-11-26T08:19:06.085Z,9.10
2022-11-26T08:21:34.509Z,9.70
2022-11-26T08:24:03.637Z,10.70
2022-11-26T08:26:36.184Z,11.50
2022-11-26T08:29:09.282Z,12.20
2022-11-26T08:31:45.121Z,12.90
2022-11-26T08:34:16.800Z,13.60
2022-11-26T08:36:45.418Z,14.00
2022-11-26T08:39:15.094Z,14.30
2022-11-26T08:41:47.343Z,14.90
2022-11-26T08:44:19.830Z,14.90
2022-11-26T08:46:47.730Z,15.00
2022-11-26T08:49:16.945Z,14.70
2022-11-26T08:51:45.428Z,14.50
2022-11-26T08:54:13.390Z,13.60
2022-11-26T08:56:41.351Z,13.20
2022-11-26T08:59:09.367Z,13.10
2022-11-26T09:01:38.794Z,13.30
2022-11-26T09:04:07.369Z,13.60
2022-11-26T09:06:37.819Z,13.60
2022-11-26T09:09:17.658Z,13.60
2022-11-26T09:11:48.748Z,13.50
2022-11-26T09:14:20.401Z,13.60
2022-11-26T09:16:49.837Z,13.70
2022-11-26T09:19:18.465Z,14.10
2022-11-26T09:21:46.754Z,13.40
2022-11-26T09:24:14.914Z,12.50
2022-11-26T09:26:42.938Z,11.60
2022-11-26T09:29:14.328Z,11.00
2022-11-26T09:32:00.581Z,10.60
2022-11-26T09:34:32.888Z,10.30
2022-11-26T09:37:00.790Z,10.20
2022-11-26T09:39:28.759Z,10.20
2022-11-26T09:42:04.679Z,10.40
2022-11-26T09:44:54.937Z,10.70
2022-11-26T09:47:25.027Z,10.90
2022-11-26T09:50:07.732Z,10.90
2022-11-26T09:52:44.583Z,10.90
2022-11-26T09:55:18.291Z,10.80
2022-11-26T09:57:53.002Z,10.80
2022-11-26T10:00:27.530Z,10.70
2022-11-26T10:03:16.707Z,10.50
2022-11-26T10:05:53.281Z,10.30
2022-11-26T10:08:39.167Z,10.20
2022-11-26T10:11:13.213Z,10.10
2022-11-26T10:13:46.964Z,9.90
2022-11-26T10:16:27.128Z,9.70
2022-11-26T10:19:03.509Z,9.70
2022-11-26T10:21:58.088Z,9.80
2022-11-26T10:24:30.746Z,9.90
2022-11-26T10:27:02.328Z,9.90
2022-11-26T10:29:38.206Z,10.00
2022-11-26T10:32:14.898Z,9.90
2022-11-26T10:34:48.967Z,9.90
2022-11-26T10:37:19.115Z,9.70
2022-11-26T10:39:47.018Z,9.50
2022-11-26T10:42:19.626Z,9.40
2022-11-26T10:44:48.980Z,9.40
2022-11-26T10:47:23.270Z,9.40
2022-11-26T10:49:52.100Z,9.50
2022-11-26T10:52:26.024Z,9.50
2022-11-26T10:55:28.083Z,9.70
2022-11-26T10:57:59.211Z,9.70
2022-11-26T11:00:37.043Z,9.60
2022-11-26T11:03:07.469Z,9.80
2022-11-26T11:05:36.139Z,10.00
2022-11-26T11:08:05.618Z,10.40
2022-11-26T11:10:34.458Z,10.40
2022-11-26T11:13:04.978Z,10.40
2022-11-26T11:15:36.156Z,10.40
2022-11-26T11:18:06.648Z,10.20
2022-11-26T11:20:37.270Z,10.00
2022-11-26T11:23:34.775Z,9.90
2022-11-26T11:26:20.278Z,9.90
2022-11-26T11:28:50.244Z,9.90
2022-11-26T11:31:20.603Z,9.90
2022-11-26T11:33:49.885Z,9.90
2022-11-26T11:36:27.091Z,9.80
2022-11-26T11:38:58.509Z,9.80
2022-11-26T11:41:33.264Z,9.70
2022-11-26T11:44:16.751Z,9.70
2022-11-26T11:47:17.986Z,9.50
2022-11-26T11:49:56.427Z,9.40
2022-11-26T11:52:33.315Z,9.40
2022-11-26T11:55:10.290Z,9.60
2022-11-26T11:57:54.694Z,9.80
2022-11-26T12:00:25.217Z,9.70
2022-11-26T12:03:24.127Z,9.60
2022-11-26T12:06:05.992Z,9.80
2022-11-26T12:08:44.582Z,9.80
2022-11-26T12:11:28.385Z,9.80
2022-11-26T12:14:01.918Z,9.90
2022-11-26T12:16:34.802Z,9.80
2022-11-26T12:19:07.264Z,9.80
2022-11-26T12:21:40.495Z,9.80
2022-11-26T12:24:14.409Z,9.90
2022-11-26T12:26:48.268Z,9.90
2022-11-26T12:29:22.948Z,9.90
2022-11-26T12:31:55.007Z,9.80
2022-11-26T12:34:32.973Z,9.70
2022-11-26T12:37:04.852Z,9.60
2022-11-26T12:39:40.863Z,9.60
2022-11-26T12:42:19.068Z,9.50
2022-11-26T12:44:51.776Z,9.50
2022-11-26T12:47:25.694Z,9.40
2022-11-26T12:50:08.562Z,9.40
2022-11-26T12:52:43.996Z,9.30
2022-11-26T12:55:18.974Z,9.30
2022-11-26T12:57:53.764Z,9.20
2022-11-26T13:00:27.321Z,9.20
2022-11-26T13:02:57.392Z,9.10
2022-11-26T13:05:33.286Z,9.10
2022-11-26T13:08:13.481Z,9.10
2022-11-26T13:11:00.374Z,9.10
2022-11-26T13:13:39.467Z,9.20
2022-11-26T13:16:21.150Z,9.20
2022-11-26T13:18:53.478Z,9.20
2022-11-26T13:21:35.952Z,9.20
2022-11-26T13:24:39.459Z,9.20
2022-11-26T13:27:34.800Z,9.20
2022-11-26T13:30:14.853Z,9.20
2022-11-26T13:33:20.900Z,9.10
2022-11-26T13:36:27.459Z,9.10
2022-11-26T13:39:05.592Z,9.00
2022-11-26T13:42:06.126Z,8.90
2022-11-26T13:45:13.154Z,9.00
2022-11-26T13:47:45.826Z,9.00
2022-11-26T13:50:18.309Z,9.10
2022-11-26T13:52:51.443Z,9.10
2022-11-26T13:55:23.215Z,9.10
2022-11-26T13:57:54.078Z,9.10
2022-11-26T14:00:29.415Z,9.00
2022-11-26T14:02:59.824Z,9.00
2022-11-26T14:06:09.099Z,8.90
2022-11-26T14:08:41.419Z,8.80
2022-11-26T14:11:10.312Z,8.70
2022-11-26T14:13:39.677Z,8.70
2022-11-26T14:16:09.602Z,8.70
2022-11-26T14:19:00.823Z,8.70
2022-11-26T14:21:30.677Z,8.70
2022-11-26T14:24:01.198Z,8.70
2022-11-26T14:26:34.078Z,8.70
2022-11-26T14:29:14.112Z,8.60
2022-11-26T14:31:49.957Z,8.60
2022-11-26T14:34:25.570Z,8.50
2022-11-26T14:36:57.404Z,8.50
2022-11-26T14:39:25.962Z,8.50
2022-11-26T14:41:58.954Z,8.50
2022-11-26T14:44:30.141Z,8.50
2022-11-26T14:47:02.031Z,8.50
2022-11-26T14:49:38.812Z,8.50
2022-11-26T14:52:17.619Z,8.50
2022-11-26T14:54:49.429Z,8.40
2022-11-26T14:57:22.726Z,8.40
2022-11-26T14:59:58.587Z,8.50
2022-11-26T15:02:28.672Z,8.50
2022-11-26T15:05:02.777Z,8.50
2022-11-26T15:07:32.411Z,8.50
2022-11-26T15:10:17.886Z,8.50
2022-11-26T15:12:47.469Z,8.50
2022-11-26T15:15:18.310Z,8.40
2022-11-26T15:17:51.284Z,8.40
2022-11-26T15:20:21.433Z,8.40
2022-11-26T15:22:51.981Z,8.30
2022-11-26T15:25:22.048Z,8.30
2022-11-26T15:27:55.284Z,8.30
2022-11-26T15:30:27.763Z,8.30
2022-11-26T15:33:00.877Z,8.20
2022-11-26T15:35:31.345Z,8.20
2022-11-26T15:37:59.641Z,8.20
2022-11-26T15:40:31.510Z,8.10
2022-11-26T15:43:03.196Z,8.10
2022-11-26T15:45:39.329Z,8.10
2022-11-26T15:48:27.094Z,8.10
2022-11-26T15:50:58.742Z,8.00
2022-11-26T15:53:29.893Z,8.00
2022-11-26T15:55:59.828Z,8.00
2022-11-26T15:58:32.674Z,8.00
2022-11-26T16:01:04.036Z,8.00
2022-11-26T16:03:41.459Z,7.90
2022-11-26T16:06:30.722Z,7.90
2022-11-26T16:09:02.440Z,7.90
2022-11-26T16:11:33.947Z,7.90
2022-11-26T16:14:23.746Z,7.90
2022-11-26T16:16:52.751Z,7.80
2022-11-26T16:19:22.612Z,7.80
2022-11-26T16:21:54.055Z,7.80
2022-11-26T16:24:29.974Z,7.80
2022-11-26T16:27:00.980Z,7.80
2022-11-26T16:29:32.636Z,7.80
2022-11-26T16:32:00.701Z,7.80
2022-11-26T16:34:29.203Z,7.80
2022-11-26T16:37:03.209Z,7.80
2022-11-26T16:39:36.096Z,7.80
2022-11-26T16:42:14.818Z,7.70
2022-11-26T16:44:42.951Z,7.70
2022-11-26T16:47:15.673Z,7.70
2022-11-26T16:49:44.003Z,7.70
2022-11-26T16:52:17.016Z,7.80
2022-11-26T16:54:46.022Z,7.70
2022-11-26T16:57:16.008Z,7.80
2022-11-26T16:59:45.163Z,7.80
2022-11-26T17:02:18.006Z,7.80
2022-11-26T17:04:47.048Z,7.80
2022-11-26T17:07:19.490Z,7.90
2022-11-26T17:09:47.472Z,7.90
2022-11-26T17:12:17.947Z,7.80
2022-11-26T17:14:46.305Z,7.80
2022-11-26T17:17:20.460Z,7.80
2022-11-26T17:19:51.999Z,7.90
2022-11-26T17:22:21.569Z,8.10
2022-11-26T17:24:49.834Z,8.20
2022-11-26T17:27:20.308Z,8.20
2022-11-26T17:29:48.938Z,8.00
2022-11-26T17:32:19.353Z,7.90
2022-11-26T17:34:48.172Z,7.80
2022-11-26T17:37:19.749Z,7.80
2022-11-26T17:39:49.141Z,7.70
2022-11-26T17:42:19.640Z,7.70
2022-11-26T17:44:47.622Z,7.70
2022-11-26T17:47:17.958Z,7.70
2022-11-26T17:49:46.906Z,7.80
2022-11-26T17:52:15.872Z,8.00
2022-11-26T17:54:43.828Z,8.00
2022-11-26T17:57:13.975Z,7.90
2022-11-26T17:59:42.403Z,7.80
2022-11-26T18:02:11.484Z,7.80
2022-11-26T18:04:39.733Z,7.90
2022-11-26T18:07:09.662Z,7.80
2022-11-26T18:09:38.247Z,7.70
2022-11-26T18:12:08.214Z,7.70
2022-11-26T18:14:42.344Z,7.70
2022-11-26T18:17:11.457Z,7.70
2022-11-26T18:19:43.581Z,7.60
2022-11-26T18:22:13.759Z,7.70
2022-11-26T18:24:43.011Z,7.70
2022-11-26T18:27:10.928Z,7.60
2022-11-26T18:29:40.678Z,7.70
2022-11-26T18:32:08.844Z,7.60
2022-11-26T18:34:36.751Z,7.60
2022-11-26T18:37:04.727Z,7.70
2022-11-26T18:39:32.698Z,7.70
2022-11-26T18:42:29.629Z,7.70
2022-11-26T18:44:50.059Z,7.70
2022-11-26T18:47:18.044Z,7.60
2022-11-26T18:49:47.643Z,7.60
2022-11-26T18:52:15.980Z,7.60
2022-11-26T18:54:44.195Z,7.60
2022-11-26T18:57:12.466Z,7.50
2022-11-26T18:59:40.846Z,7.60
2022-11-26T19:02:11.817Z,7.60
2022-11-26T19:04:39.991Z,7.60
2022-11-26T19:07:07.932Z,7.50
2022-11-26T19:09:35.927Z,7.50
2022-11-26T19:12:03.962Z,7.50
2022-11-26T19:14:31.971Z,7.50
2022-11-26T19:17:00.017Z,7.50
2022-11-26T19:19:29.288Z,7.50
2022-11-26T19:22:01.121Z,7.40
2022-11-26T19:24:30.028Z,7.40
2022-11-26T19:26:59.637Z,7.40
2022-11-26T19:29:27.596Z,7.40
2022-11-26T19:31:55.731Z,7.40
2022-11-26T19:34:23.854Z,7.40
2022-11-26T19:36:57.691Z,7.40
2022-11-26T19:39:25.904Z,7.40
2022-11-26T19:41:53.817Z,7.40
2022-11-26T19:44:21.805Z,7.20
2022-11-26T19:46:49.751Z,7.00
2022-11-26T19:49:17.705Z,6.90
2022-11-26T19:51:46.368Z,6.70
2022-11-26T19:54:15.641Z,6.60
2022-11-26T19:56:43.721Z,6.50
2022-11-26T19:59:11.629Z,6.40
2022-11-26T20:01:39.728Z,6.20
2022-11-26T20:04:12.464Z,6.10
2022-11-26T20:06:40.513Z,6.00
2022-11-26T20:09:09.634Z,5.90
2022-11-26T20:11:40.829Z,5.90
2022-11-26T20:14:10.565Z,5.80
2022-11-26T20:16:40.010Z,5.70
2022-11-26T20:19:08.383Z,5.60
2022-11-26T20:21:36.768Z,5.50
2022-11-26T20:24:07.089Z,5.40
2022-11-26T20:26:38.669Z,5.50
2022-11-26T20:29:10.193Z,5.50
2022-11-26T20:31:40.949Z,5.40
2022-11-26T20:34:09.075Z,5.30
2022-11-26T20:36:37.703Z,5.30
2022-11-26T20:39:05.779Z,5.40
2022-11-26T20:41:34.526Z,5.50
2022-11-26T20:44:02.492Z,5.50
2022-11-26T20:46:32.189Z,5.40
2022-11-26T20:49:00.411Z,5.50
2022-11-26T20:51:28.680Z,5.60
2022-11-26T20:53:59.898Z,5.70
2022-11-26T20:56:28.516Z,5.70
2022-11-26T20:58:56.876Z,5.60
2022-11-26T21:01:26.474Z,5.60
2022-11-26T21:03:56.940Z,5.60
2022-11-26T21:06:30.195Z,5.60
2022-11-26T21:09:00.560Z,5.60
2022-11-26T21:11:28.739Z,5.60
2022-11-26T21:13:58.098Z,5.60
2022-11-26T21:16:26.482Z,5.60
2022-11-26T21:18:55.991Z,5.60
2022-11-26T21:21:25.351Z,5.70
2022-11-26T21:23:54.527Z,5.70
2022-11-26T21:26:24.328Z,5.80
2022-11-26T21:28:53.066Z,5.80
2022-11-26T21:31:21.970Z,5.80
2022-11-26T21:33:57.279Z,5.90
2022-11-26T21:36:26.365Z,6.00
2022-11-26T21:38:54.863Z,6.00
2022-11-26T21:41:23.693Z,6.00
2022-11-26T21:43:51.998Z,6.10
2022-11-26T21:46:22.119Z,6.00
2022-11-26T21:48:50.377Z,5.80
2022-11-26T21:51:20.098Z,5.80
2022-11-26T21:53:49.764Z,5.80
2022-11-26T21:56:19.816Z,5.80
2022-11-26T21:58:48.213Z,5.80
2022-11-26T22:01:18.715Z,5.70
2022-11-26T22:03:49.718Z,5.80
2022-11-26T22:06:21.215Z,5.70
2022-11-26T22:08:49.878Z,5.60
2022-11-26T22:11:19.639Z,5.60
2022-11-26T22:13:47.862Z,5.60
2022-11-26T22:16:18.662Z,5.60
2022-11-26T22:18:47.800Z,5.60
2022-11-26T22:21:18.011Z,5.60
2022-11-26T22:23:47.778Z,5.80
2022-11-26T22:26:16.034Z,5.80
2022-11-26T22:28:44.214Z,5.70
2022-11-26T22:31:15.142Z,5.80
2022-11-26T22:33:43.290Z,5.80
2022-11-26T22:36:11.348Z,5.80
2022-11-26T22:38:40.417Z,5.80
2022-11-26T22:41:11.562Z,5.90
2022-11-26T22:43:39.877Z,6.00
2022-11-26T22:46:09.415Z,6.00
2022-11-26T22:48:37.828Z,6.00
2022-11-26T22:51:05.877Z,5.90
2022-11-26T22:53:34.324Z,6.00
2022-11-26T22:56:03.854Z,6.00
2022-11-26T22:58:34.931Z,6.00
2022-11-26T23:01:04.572Z,6.10
2022-11-26T23:03:34.115Z,6.20
2022-11-26T23:06:06.857Z,6.20
2022-11-26T23:08:35.148Z,6.20
2022-11-26T23:11:07.362Z,6.20
2022-11-26T23:13:37.067Z,6.20
2022-11-26T23:16:08.472Z,6.10
2022-11-26T23:18:37.645Z,6.00
2022-11-26T23:21:08.115Z,6.00
2022-11-26T23:23:37.268Z,6.00
2022-11-26T23:26:05.622Z,6.00
2022-11-26T23:28:34.880Z,6.00
2022-11-26T23:31:08.877Z,5.90
2022-11-26T23:33:37.112Z,5.80
2022-11-26T23:36:05.615Z,5.70
2022-11-26T23:38:33.828Z,5.70
2022-11-26T23:41:03.542Z,5.60
2022-11-26T23:43:32.792Z,5.40
2022-11-26T23:46:02.312Z,5.30
2022-11-26T23:48:31.808Z,5.10
2022-11-26T23:50:59.765Z,5.10
2022-11-26T23:53:30.686Z,4.90
2022-11-26T23:56:03.789Z,4.70
2022-11-26T23:58:31.918Z,4.60
